sensor_id;sensor_type;location;lat;lon;timestamp;temperature;humidity
54832;DHT22;40730;53.068;6.572;2023-01-06T00:00:11;10.10;99.90
54832;DHT22;40730;53.068;6.572;2023-01-06T00:02:36;10.10;99.90
54832;DHT22;40730;53.068;6.572;2023-01-06T00:05:02;10.20;99.90
54832;DHT22;40730;53.068;6.572;2023-01-06T00:07:28;10.20;99.90
54832;DHT22;40730;53.068;6.572;2023-01-06T00:09:54;10.20;99.90
54832;DHT22;40730;53.068;6.572;2023-01-06T00:12:19;10.20;99.90
54832;DHT22;40730;53.068;6.572;2023-01-06T00:14:45;10.40;99.90
54832;DHT22;40730;53.068;6.572;2023-01-06T00:17:12;10.20;99.90
54832;DHT22;40730;53.068;6.572;2023-01-06T00:19:38;10.20;99.90
54832;DHT22;40730;53.068;6.572;2023-01-06T00:22:04;10.20;99.90
54832;DHT22;40730;53.068;6.572;2023-01-06T00:24:31;10.20;99.90
54832;DHT22;40730;53.068;6.572;2023-01-06T00:26:58;10.20;99.90
54832;DHT22;40730;53.068;6.572;2023-01-06T00:29:23;10.20;99.90
54832;DHT22;40730;53.068;6.572;2023-01-06T00:31:49;10.20;99.90
54832;DHT22;40730;53.068;6.572;2023-01-06T00:34:15;10.00;99.90
54832;DHT22;40730;53.068;6.572;2023-01-06T00:36:41;10.20;99.90
54832;DHT22;40730;53.068;6.572;2023-01-06T00:39:06;10.20;99.90
54832;DHT22;40730;53.068;6.572;2023-01-06T00:41:32;10.20;99.90
54832;DHT22;40730;53.068;6.572;2023-01-06T00:44:16;10.20;99.90
54832;DHT22;40730;53.068;6.572;2023-01-06T00:46:42;10.10;99.90
54832;DHT22;40730;53.068;6.572;2023-01-06T00:49:07;10.20;99.90
54832;DHT22;40730;53.068;6.572;2023-01-06T00:51:35;10.30;99.90
54832;DHT22;40730;53.068;6.572;2023-01-06T00:54:02;10.20;99.90
54832;DHT22;40730;53.068;6.572;2023-01-06T00:56:28;10.30;99.90
54832;DHT22;40730;53.068;6.572;2023-01-06T00:58:54;10.20;99.90
54832;DHT22;40730;53.068;6.572;2023-01-06T01:01:19;10.20;99.90
54832;DHT22;40730;53.068;6.572;2023-01-06T01:03:45;10.40;99.90
54832;DHT22;40730;53.068;6.572;2023-01-06T01:06:10;10.30;99.90
54832;DHT22;40730;53.068;6.572;2023-01-06T01:08:36;10.30;99.90
54832;DHT22;40730;53.068;6.572;2023-01-06T01:11:07;10.30;99.90
54832;DHT22;40730;53.068;6.572;2023-01-06T01:13:33;10.30;99.90
54832;DHT22;40730;53.068;6.572;2023-01-06T01:16:04;10.20;99.90
54832;DHT22;40730;53.068;6.572;2023-01-06T01:18:29;10.20;99.90
54832;DHT22;40730;53.068;6.572;2023-01-06T01:20:55;10.20;99.90
54832;DHT22;40730;53.068;6.572;2023-01-06T01:23:21;10.20;99.90
54832;DHT22;40730;53.068;6.572;2023-01-06T01:25:46;10.20;99.90
54832;DHT22;40730;53.068;6.572;2023-01-06T01:28:12;10.20;99.90
54832;DHT22;40730;53.068;6.572;2023-01-06T01:30:37;10.20;99.90
54832;DHT22;40730;53.068;6.572;2023-01-06T01:33:03;10.10;99.90
54832;DHT22;40730;53.068;6.572;2023-01-06T01:35:28;10.10;99.90
54832;DHT22;40730;53.068;6.572;2023-01-06T01:37:54;10.10;99.90
54832;DHT22;40730;53.068;6.572;2023-01-06T01:40:19;10.10;99.90
54832;DHT22;40730;53.068;6.572;2023-01-06T01:42:45;10.10;99.90
54832;DHT22;40730;53.068;6.572;2023-01-06T01:45:24;10.10;99.90
54832;DHT22;40730;53.068;6.572;2023-01-06T01:48:05;10.10;99.90
54832;DHT22;40730;53.068;6.572;2023-01-06T01:50:38;10.10;99.90
54832;DHT22;40730;53.068;6.572;2023-01-06T01:53:29;10.10;99.90
54832;DHT22;40730;53.068;6.572;2023-01-06T01:55:56;10.20;99.90
54832;DHT22;40730;53.068;6.572;2023-01-06T01:58:29;10.10;99.90
54832;DHT22;40730;53.068;6.572;2023-01-06T02:00:55;10.10;99.90
54832;DHT22;40730;53.068;6.572;2023-01-06T02:03:21;10.10;99.90
54832;DHT22;40730;53.068;6.572;2023-01-06T02:05:54;10.10;99.90
54832;DHT22;40730;53.068;6.572;2023-01-06T02:08:31;10.10;99.90
54832;DHT22;40730;53.068;6.572;2023-01-06T02:10:59;10.10;99.90
54832;DHT22;40730;53.068;6.572;2023-01-06T02:13:25;10.10;99.90
54832;DHT22;40730;53.068;6.572;2023-01-06T02:15:58;10.10;99.90
54832;DHT22;40730;53.068;6.572;2023-01-06T02:21:58;10.10;99.90
54832;DHT22;40730;53.068;6.572;2023-01-06T02:49:11;10.00;99.90
54832;DHT22;40730;53.068;6.572;2023-01-06T02:51:48;10.00;99.90
54832;DHT22;40730;53.068;6.572;2023-01-06T02:54:39;10.00;99.90
54832;DHT22;40730;53.068;6.572;2023-01-06T02:59:40;10.00;99.90
54832;DHT22;40730;53.068;6.572;2023-01-06T03:02:09;10.10;99.90
54832;DHT22;40730;53.068;6.572;2023-01-06T03:04:42;10.00;99.90
54832;DHT22;40730;53.068;6.572;2023-01-06T03:07:09;10.00;99.90
54832;DHT22;40730;53.068;6.572;2023-01-06T03:09:37;10.00;99.90
54832;DHT22;40730;53.068;6.572;2023-01-06T03:12:21;10.00;99.90
54832;DHT22;40730;53.068;6.572;2023-01-06T03:14:51;9.90;99.90
54832;DHT22;40730;53.068;6.572;2023-01-06T03:17:18;9.90;99.90
54832;DHT22;40730;53.068;6.572;2023-01-06T03:19:44;9.90;99.90
54832;DHT22;40730;53.068;6.572;2023-01-06T03:22:11;9.90;99.90
54832;DHT22;40730;53.068;6.572;2023-01-06T03:24:37;10.00;99.90
54832;DHT22;40730;53.068;6.572;2023-01-06T03:27:04;10.00;99.90
54832;DHT22;40730;53.068;6.572;2023-01-06T03:29:30;10.00;99.90
54832;DHT22;40730;53.068;6.572;2023-01-06T03:40:43;10.00;99.90
54832;DHT22;40730;53.068;6.572;2023-01-06T03:43:27;10.00;99.90
54832;DHT22;40730;53.068;6.572;2023-01-06T03:49:07;10.00;99.90
54832;DHT22;40730;53.068;6.572;2023-01-06T03:54:36;10.00;99.90
54832;DHT22;40730;53.068;6.572;2023-01-06T03:57:06;10.00;99.90
54832;DHT22;40730;53.068;6.572;2023-01-06T03:59:41;10.00;99.90
54832;DHT22;40730;53.068;6.572;2023-01-06T04:02:09;10.00;99.90
54832;DHT22;40730;53.068;6.572;2023-01-06T04:04:36;10.00;99.90
54832;DHT22;40730;53.068;6.572;2023-01-06T04:07:01;10.00;99.90
54832;DHT22;40730;53.068;6.572;2023-01-06T04:09:27;10.00;99.90
54832;DHT22;40730;53.068;6.572;2023-01-06T04:11:52;10.00;99.90
54832;DHT22;40730;53.068;6.572;2023-01-06T04:14:37;10.00;99.90
54832;DHT22;40730;53.068;6.572;2023-01-06T04:17:02;10.00;99.90
54832;DHT22;40730;53.068;6.572;2023-01-06T04:19:28;10.00;99.90
54832;DHT22;40730;53.068;6.572;2023-01-06T04:21:53;10.00;99.90
54832;DHT22;40730;53.068;6.572;2023-01-06T04:24:19;10.10;99.90
54832;DHT22;40730;53.068;6.572;2023-01-06T04:26:44;10.00;99.90
54832;DHT22;40730;53.068;6.572;2023-01-06T04:29:10;10.10;99.90
54832;DHT22;40730;53.068;6.572;2023-01-06T04:31:36;10.10;99.90
54832;DHT22;40730;53.068;6.572;2023-01-06T04:34:01;10.00;99.90
54832;DHT22;40730;53.068;6.572;2023-01-06T04:36:27;10.10;99.90
54832;DHT22;40730;53.068;6.572;2023-01-06T04:38:52;10.00;99.90
54832;DHT22;40730;53.068;6.572;2023-01-06T04:41:18;10.00;99.90
54832;DHT22;40730;53.068;6.572;2023-01-06T04:43:44;10.10;99.90
54832;DHT22;40730;53.068;6.572;2023-01-06T04:46:09;10.10;99.90
54832;DHT22;40730;53.068;6.572;2023-01-06T04:48:35;10.10;99.90
54832;DHT22;40730;53.068;6.572;2023-01-06T04:51:05;10.10;99.90
54832;DHT22;40730;53.068;6.572;2023-01-06T04:53:37;10.10;99.90
54832;DHT22;40730;53.068;6.572;2023-01-06T04:56:05;10.10;99.90
54832;DHT22;40730;53.068;6.572;2023-01-06T04:58:31;10.10;99.90
54832;DHT22;40730;53.068;6.572;2023-01-06T05:01:09;10.10;99.90
54832;DHT22;40730;53.068;6.572;2023-01-06T05:03:35;10.10;99.90
54832;DHT22;40730;53.068;6.572;2023-01-06T05:06:02;10.00;99.90
54832;DHT22;40730;53.068;6.572;2023-01-06T05:08:30;10.00;99.90
54832;DHT22;40730;53.068;6.572;2023-01-06T05:11:00;10.00;99.90
54832;DHT22;40730;53.068;6.572;2023-01-06T05:13:27;10.30;99.90
54832;DHT22;40730;53.068;6.572;2023-01-06T05:15:53;10.00;99.90
54832;DHT22;40730;53.068;6.572;2023-01-06T05:18:19;10.10;99.90
54832;DHT22;40730;53.068;6.572;2023-01-06T05:20:50;10.00;99.90
54832;DHT22;40730;53.068;6.572;2023-01-06T05:23:16;10.10;99.90
54832;DHT22;40730;53.068;6.572;2023-01-06T05:25:42;10.10;99.90
54832;DHT22;40730;53.068;6.572;2023-01-06T05:28:08;10.20;99.90
54832;DHT22;40730;53.068;6.572;2023-01-06T05:30:33;10.20;99.90
54832;DHT22;40730;53.068;6.572;2023-01-06T05:32:59;10.20;99.90
54832;DHT22;40730;53.068;6.572;2023-01-06T05:35:24;10.10;99.90
54832;DHT22;40730;53.068;6.572;2023-01-06T05:37:53;10.10;99.90
54832;DHT22;40730;53.068;6.572;2023-01-06T05:40:19;10.10;99.90
54832;DHT22;40730;53.068;6.572;2023-01-06T05:42:44;10.00;99.90
54832;DHT22;40730;53.068;6.572;2023-01-06T05:45:10;10.00;99.90
54832;DHT22;40730;53.068;6.572;2023-01-06T05:47:36;10.10;99.90
54832;DHT22;40730;53.068;6.572;2023-01-06T05:50:02;10.10;99.90
54832;DHT22;40730;53.068;6.572;2023-01-06T05:52:28;10.10;99.90
54832;DHT22;40730;53.068;6.572;2023-01-06T05:54:53;10.00;99.90
54832;DHT22;40730;53.068;6.572;2023-01-06T05:57:19;9.90;99.90
54832;DHT22;40730;53.068;6.572;2023-01-06T05:59:45;9.90;99.90
54832;DHT22;40730;53.068;6.572;2023-01-06T06:02:10;9.90;99.90
54832;DHT22;40730;53.068;6.572;2023-01-06T06:04:36;9.80;99.90
54832;DHT22;40730;53.068;6.572;2023-01-06T06:07:01;9.80;99.90
54832;DHT22;40730;53.068;6.572;2023-01-06T06:09:27;9.80;99.90
54832;DHT22;40730;53.068;6.572;2023-01-06T06:11:53;9.80;99.90
54832;DHT22;40730;53.068;6.572;2023-01-06T06:14:19;9.70;99.90
54832;DHT22;40730;53.068;6.572;2023-01-06T06:16:44;9.80;99.90
54832;DHT22;40730;53.068;6.572;2023-01-06T06:19:11;9.80;99.90
54832;DHT22;40730;53.068;6.572;2023-01-06T06:21:37;9.70;99.90
54832;DHT22;40730;53.068;6.572;2023-01-06T06:24:03;9.60;99.90
54832;DHT22;40730;53.068;6.572;2023-01-06T06:26:29;9.60;99.90
54832;DHT22;40730;53.068;6.572;2023-01-06T06:28:55;9.60;99.90
54832;DHT22;40730;53.068;6.572;2023-01-06T06:31:23;9.60;99.90
54832;DHT22;40730;53.068;6.572;2023-01-06T06:33:55;9.60;99.90
54832;DHT22;40730;53.068;6.572;2023-01-06T06:36:22;9.60;99.90
54832;DHT22;40730;53.068;6.572;2023-01-06T06:38:49;9.60;99.90
54832;DHT22;40730;53.068;6.572;2023-01-06T06:41:16;9.50;99.90
54832;DHT22;40730;53.068;6.572;2023-01-06T06:43:42;9.50;99.90
54832;DHT22;40730;53.068;6.572;2023-01-06T06:46:08;9.50;99.90
54832;DHT22;40730;53.068;6.572;2023-01-06T06:48:34;9.50;99.90
54832;DHT22;40730;53.068;6.572;2023-01-06T06:51:06;9.50;99.90
54832;DHT22;40730;53.068;6.572;2023-01-06T06:53:33;9.50;99.90
54832;DHT22;40730;53.068;6.572;2023-01-06T06:55:59;9.50;99.90
54832;DHT22;40730;53.068;6.572;2023-01-06T06:58:24;9.70;99.90
54832;DHT22;40730;53.068;6.572;2023-01-06T07:00:50;9.50;99.90
54832;DHT22;40730;53.068;6.572;2023-01-06T07:03:16;9.50;99.90
54832;DHT22;40730;53.068;6.572;2023-01-06T07:05:43;9.50;99.90
54832;DHT22;40730;53.068;6.572;2023-01-06T07:08:10;9.50;99.90
54832;DHT22;40730;53.068;6.572;2023-01-06T07:10:36;9.50;99.90
54832;DHT22;40730;53.068;6.572;2023-01-06T07:13:02;9.50;99.90
54832;DHT22;40730;53.068;6.572;2023-01-06T07:15:27;9.60;99.90
54832;DHT22;40730;53.068;6.572;2023-01-06T07:17:53;9.50;99.90
54832;DHT22;40730;53.068;6.572;2023-01-06T07:20:18;9.50;99.90
54832;DHT22;40730;53.068;6.572;2023-01-06T07:22:44;9.50;99.90
54832;DHT22;40730;53.068;6.572;2023-01-06T07:25:10;9.50;99.90
54832;DHT22;40730;53.068;6.572;2023-01-06T07:27:36;9.40;99.90
54832;DHT22;40730;53.068;6.572;2023-01-06T07:30:03;9.50;99.90
54832;DHT22;40730;53.068;6.572;2023-01-06T07:32:29;9.50;99.90
54832;DHT22;40730;53.068;6.572;2023-01-06T07:34:55;9.50;99.90
54832;DHT22;40730;53.068;6.572;2023-01-06T07:37:21;9.50;99.90
54832;DHT22;40730;53.068;6.572;2023-01-06T07:39:46;9.50;99.90
54832;DHT22;40730;53.068;6.572;2023-01-06T07:42:12;10.00;99.90
54832;DHT22;40730;53.068;6.572;2023-01-06T07:44:37;9.60;99.90
54832;DHT22;40730;53.068;6.572;2023-01-06T07:47:03;9.60;99.90
54832;DHT22;40730;53.068;6.572;2023-01-06T07:49:29;9.60;99.90
54832;DHT22;40730;53.068;6.572;2023-01-06T07:51:55;9.60;99.90
54832;DHT22;40730;53.068;6.572;2023-01-06T07:54:20;9.60;99.90
54832;DHT22;40730;53.068;6.572;2023-01-06T07:56:46;9.60;99.90
54832;DHT22;40730;53.068;6.572;2023-01-06T07:59:11;9.60;99.90
54832;DHT22;40730;53.068;6.572;2023-01-06T08:01:37;9.50;99.90
54832;DHT22;40730;53.068;6.572;2023-01-06T08:04:03;9.50;99.90
54832;DHT22;40730;53.068;6.572;2023-01-06T08:06:28;9.40;99.90
54832;DHT22;40730;53.068;6.572;2023-01-06T08:08:54;9.30;99.90
54832;DHT22;40730;53.068;6.572;2023-01-06T08:11:20;9.40;99.90
54832;DHT22;40730;53.068;6.572;2023-01-06T08:13:45;9.00;99.90
54832;DHT22;40730;53.068;6.572;2023-01-06T08:16:11;9.00;99.90
54832;DHT22;40730;53.068;6.572;2023-01-06T08:18:37;8.80;99.90
54832;DHT22;40730;53.068;6.572;2023-01-06T08:21:05;8.70;99.90
54832;DHT22;40730;53.068;6.572;2023-01-06T08:23:32;8.60;99.90
54832;DHT22;40730;53.068;6.572;2023-01-06T08:26:09;8.50;99.90
54832;DHT22;40730;53.068;6.572;2023-01-06T08:28:35;8.40;99.90
54832;DHT22;40730;53.068;6.572;2023-01-06T08:31:01;8.30;99.90
54832;DHT22;40730;53.068;6.572;2023-01-06T08:33:27;8.20;99.90
54832;DHT22;40730;53.068;6.572;2023-01-06T08:36:01;8.20;99.90
54832;DHT22;40730;53.068;6.572;2023-01-06T08:38:27;8.20;99.90
54832;DHT22;40730;53.068;6.572;2023-01-06T08:40:54;8.10;99.90
54832;DHT22;40730;53.068;6.572;2023-01-06T08:43:20;8.10;99.90
54832;DHT22;40730;53.068;6.572;2023-01-06T08:45:46;8.10;99.90
54832;DHT22;40730;53.068;6.572;2023-01-06T08:48:12;8.00;99.90
54832;DHT22;40730;53.068;6.572;2023-01-06T08:50:39;8.00;99.90
54832;DHT22;40730;53.068;6.572;2023-01-06T08:53:05;7.90;99.90
54832;DHT22;40730;53.068;6.572;2023-01-06T08:55:30;7.90;99.90
54832;DHT22;40730;53.068;6.572;2023-01-06T08:57:56;8.00;99.90
54832;DHT22;40730;53.068;6.572;2023-01-06T09:00:22;7.90;99.90
54832;DHT22;40730;53.068;6.572;2023-01-06T09:02:47;7.90;99.90
54832;DHT22;40730;53.068;6.572;2023-01-06T09:05:13;8.00;99.90
54832;DHT22;40730;53.068;6.572;2023-01-06T09:07:39;8.00;99.90
54832;DHT22;40730;53.068;6.572;2023-01-06T09:10:05;8.00;99.90
54832;DHT22;40730;53.068;6.572;2023-01-06T09:12:30;8.00;99.90
54832;DHT22;40730;53.068;6.572;2023-01-06T09:14:56;8.00;99.90
54832;DHT22;40730;53.068;6.572;2023-01-06T09:17:22;8.00;99.90
54832;DHT22;40730;53.068;6.572;2023-01-06T09:19:48;8.00;99.90
54832;DHT22;40730;53.068;6.572;2023-01-06T09:22:14;8.00;99.90
54832;DHT22;40730;53.068;6.572;2023-01-06T09:24:39;8.00;99.90
54832;DHT22;40730;53.068;6.572;2023-01-06T09:27:05;8.00;99.90
54832;DHT22;40730;53.068;6.572;2023-01-06T09:29:30;8.00;99.90
54832;DHT22;40730;53.068;6.572;2023-01-06T09:31:56;8.10;99.90
54832;DHT22;40730;53.068;6.572;2023-01-06T09:34:22;8.10;99.90
54832;DHT22;40730;53.068;6.572;2023-01-06T09:36:47;8.10;99.90
54832;DHT22;40730;53.068;6.572;2023-01-06T09:39:13;8.10;99.90
54832;DHT22;40730;53.068;6.572;2023-01-06T09:44:30;8.20;99.90
54832;DHT22;40730;53.068;6.572;2023-01-06T09:46:58;8.20;99.90
54832;DHT22;40730;53.068;6.572;2023-01-06T09:49:29;8.20;99.90
54832;DHT22;40730;53.068;6.572;2023-01-06T09:54:50;8.30;99.90
54832;DHT22;40730;53.068;6.572;2023-01-06T09:57:24;8.30;99.90
54832;DHT22;40730;53.068;6.572;2023-01-06T09:59:55;8.30;99.90
54832;DHT22;40730;53.068;6.572;2023-01-06T10:02:36;8.40;99.90
54832;DHT22;40730;53.068;6.572;2023-01-06T10:05:20;8.40;99.90
54832;DHT22;40730;53.068;6.572;2023-01-06T10:08:05;8.40;99.90
54832;DHT22;40730;53.068;6.572;2023-01-06T10:10:43;8.50;99.90
54832;DHT22;40730;53.068;6.572;2023-01-06T10:19:01;8.50;99.90
54832;DHT22;40730;53.068;6.572;2023-01-06T10:22:04;8.60;99.90
54832;DHT22;40730;53.068;6.572;2023-01-06T10:24:54;8.60;99.90
54832;DHT22;40730;53.068;6.572;2023-01-06T10:29:59;8.70;99.90
54832;DHT22;40730;53.068;6.572;2023-01-06T10:32:28;8.60;99.90
54832;DHT22;40730;53.068;6.572;2023-01-06T10:34:56;8.70;99.90
54832;DHT22;40730;53.068;6.572;2023-01-06T10:37:35;8.80;99.90
54832;DHT22;40730;53.068;6.572;2023-01-06T10:40:25;8.80;99.90
54832;DHT22;40730;53.068;6.572;2023-01-06T10:43:03;8.80;99.90
54832;DHT22;40730;53.068;6.572;2023-01-06T10:48:00;8.90;99.90
54832;DHT22;40730;53.068;6.572;2023-01-06T10:50:26;9.00;99.90
54832;DHT22;40730;53.068;6.572;2023-01-06T10:52:52;9.20;99.90
54832;DHT22;40730;53.068;6.572;2023-01-06T10:57:53;9.30;99.90
54832;DHT22;40730;53.068;6.572;2023-01-06T11:00:23;9.40;99.90
54832;DHT22;40730;53.068;6.572;2023-01-06T11:03:04;9.50;99.90
54832;DHT22;40730;53.068;6.572;2023-01-06T11:05:31;9.50;99.90
54832;DHT22;40730;53.068;6.572;2023-01-06T11:08:05;9.50;99.90
54832;DHT22;40730;53.068;6.572;2023-01-06T11:10:50;9.60;99.90
54832;DHT22;40730;53.068;6.572;2023-01-06T11:15:51;9.60;99.90
54832;DHT22;40730;53.068;6.572;2023-01-06T11:21:15;9.90;99.90
54832;DHT22;40730;53.068;6.572;2023-01-06T11:23:43;10.10;99.90
54832;DHT22;40730;53.068;6.572;2023-01-06T11:26:20;10.30;99.90
54832;DHT22;40730;53.068;6.572;2023-01-06T11:28:49;10.20;99.90
54832;DHT22;40730;53.068;6.572;2023-01-06T11:33:54;10.20;99.90
54832;DHT22;40730;53.068;6.572;2023-01-06T11:36:22;10.20;99.90
54832;DHT22;40730;53.068;6.572;2023-01-06T11:38:55;10.30;99.90
54832;DHT22;40730;53.068;6.572;2023-01-06T11:41:36;10.30;99.90
54832;DHT22;40730;53.068;6.572;2023-01-06T11:46:33;10.50;99.90
54832;DHT22;40730;53.068;6.572;2023-01-06T11:49:14;10.40;99.90
54832;DHT22;40730;53.068;6.572;2023-01-06T11:54:37;10.60;99.90
54832;DHT22;40730;53.068;6.572;2023-01-06T12:00:14;10.70;99.90
54832;DHT22;40730;53.068;6.572;2023-01-06T12:03:00;10.70;99.90
54832;DHT22;40730;53.068;6.572;2023-01-06T12:08:16;10.60;99.90
54832;DHT22;40730;53.068;6.572;2023-01-06T12:10:45;10.60;99.90
54832;DHT22;40730;53.068;6.572;2023-01-06T12:13:13;10.50;99.90
54832;DHT22;40730;53.068;6.572;2023-01-06T12:15:41;10.60;99.90
54832;DHT22;40730;53.068;6.572;2023-01-06T12:18:22;10.60;99.90
54832;DHT22;40730;53.068;6.572;2023-01-06T12:20:51;10.70;99.90
54832;DHT22;40730;53.068;6.572;2023-01-06T12:23:21;10.60;99.90
54832;DHT22;40730;53.068;6.572;2023-01-06T12:25:49;10.50;99.90
54832;DHT22;40730;53.068;6.572;2023-01-06T12:28:37;10.50;99.90
54832;DHT22;40730;53.068;6.572;2023-01-06T12:31:09;10.40;99.90
54832;DHT22;40730;53.068;6.572;2023-01-06T12:34:04;10.30;99.90
54832;DHT22;40730;53.068;6.572;2023-01-06T12:41:52;10.00;99.90
54832;DHT22;40730;53.068;6.572;2023-01-06T12:46:54;9.90;99.90
54832;DHT22;40730;53.068;6.572;2023-01-06T12:52:03;9.80;99.90
54832;DHT22;40730;53.068;6.572;2023-01-06T12:54:32;9.80;99.90
54832;DHT22;40730;53.068;6.572;2023-01-06T12:57:11;9.80;99.90
54832;DHT22;40730;53.068;6.572;2023-01-06T13:00:00;9.80;99.90
54832;DHT22;40730;53.068;6.572;2023-01-06T13:02:51;9.80;99.90
54832;DHT22;40730;53.068;6.572;2023-01-06T13:05:48;9.90;99.90
54832;DHT22;40730;53.068;6.572;2023-01-06T13:11:12;9.80;99.90
54832;DHT22;40730;53.068;6.572;2023-01-06T13:13:41;9.80;99.90
54832;DHT22;40730;53.068;6.572;2023-01-06T13:16:19;9.70;99.90
54832;DHT22;40730;53.068;6.572;2023-01-06T13:19:49;9.60;99.90
54832;DHT22;40730;53.068;6.572;2023-01-06T13:21:55;9.60;99.90
54832;DHT22;40730;53.068;6.572;2023-01-06T13:24:26;9.60;99.90
54832;DHT22;40730;53.068;6.572;2023-01-06T13:36:00;9.40;99.90
54832;DHT22;40730;53.068;6.572;2023-01-06T13:41:18;9.40;99.90
54832;DHT22;40730;53.068;6.572;2023-01-06T13:43:47;9.30;99.90
54832;DHT22;40730;53.068;6.572;2023-01-06T13:46:15;9.30;99.90
54832;DHT22;40730;53.068;6.572;2023-01-06T13:48:45;9.20;99.90
54832;DHT22;40730;53.068;6.572;2023-01-06T13:51:15;9.20;99.90
54832;DHT22;40730;53.068;6.572;2023-01-06T13:53:44;9.10;99.90
54832;DHT22;40730;53.068;6.572;2023-01-06T13:58:40;9.10;99.90
54832;DHT22;40730;53.068;6.572;2023-01-06T14:03:41;9.00;99.90
54832;DHT22;40730;53.068;6.572;2023-01-06T14:08:55;8.90;99.90
54832;DHT22;40730;53.068;6.572;2023-01-06T14:11:33;8.90;99.90
54832;DHT22;40730;53.068;6.572;2023-01-06T14:14:03;8.90;99.90
54832;DHT22;40730;53.068;6.572;2023-01-06T14:16:43;8.80;99.90
54832;DHT22;40730;53.068;6.572;2023-01-06T14:19:23;8.80;99.90
54832;DHT22;40730;53.068;6.572;2023-01-06T14:21:51;8.80;99.90
54832;DHT22;40730;53.068;6.572;2023-01-06T14:24:29;8.80;99.90
54832;DHT22;40730;53.068;6.572;2023-01-06T14:27:05;8.80;99.90
54832;DHT22;40730;53.068;6.572;2023-01-06T14:34:55;8.70;99.90
54832;DHT22;40730;53.068;6.572;2023-01-06T14:37:42;8.70;99.90
54832;DHT22;40730;53.068;6.572;2023-01-06T14:40:22;8.60;99.90
54832;DHT22;40730;53.068;6.572;2023-01-06T14:42:50;8.60;99.90
54832;DHT22;40730;53.068;6.572;2023-01-06T14:45:25;8.60;99.90
54832;DHT22;40730;53.068;6.572;2023-01-06T14:48:08;8.50;99.90
54832;DHT22;40730;53.068;6.572;2023-01-06T14:50:40;8.50;99.90
54832;DHT22;40730;53.068;6.572;2023-01-06T14:53:13;8.40;99.90
54832;DHT22;40730;53.068;6.572;2023-01-06T14:55:45;8.50;99.90
54832;DHT22;40730;53.068;6.572;2023-01-06T14:58:35;8.40;99.90
54832;DHT22;40730;53.068;6.572;2023-01-06T15:01:05;8.50;99.90
54832;DHT22;40730;53.068;6.572;2023-01-06T15:03:31;8.30;99.90
54832;DHT22;40730;53.068;6.572;2023-01-06T15:06:18;8.40;99.90
54832;DHT22;40730;53.068;6.572;2023-01-06T15:08:44;8.30;99.90
54832;DHT22;40730;53.068;6.572;2023-01-06T15:11:23;8.20;99.90
54832;DHT22;40730;53.068;6.572;2023-01-06T15:13:50;8.20;99.90
54832;DHT22;40730;53.068;6.572;2023-01-06T15:18:53;8.10;99.90
54832;DHT22;40730;53.068;6.572;2023-01-06T15:21:20;8.00;99.90
54832;DHT22;40730;53.068;6.572;2023-01-06T15:23:48;8.00;99.90
54832;DHT22;40730;53.068;6.572;2023-01-06T15:26:27;8.00;99.90
54832;DHT22;40730;53.068;6.572;2023-01-06T15:31:24;7.90;99.90
54832;DHT22;40730;53.068;6.572;2023-01-06T15:33:50;7.80;99.90
54832;DHT22;40730;53.068;6.572;2023-01-06T15:36:19;7.80;99.90
54832;DHT22;40730;53.068;6.572;2023-01-06T15:38:45;7.70;99.90
54832;DHT22;40730;53.068;6.572;2023-01-06T15:41:11;7.60;99.90
54832;DHT22;40730;53.068;6.572;2023-01-06T15:43:57;7.60;99.90
54832;DHT22;40730;53.068;6.572;2023-01-06T15:46:23;7.50;99.90
54832;DHT22;40730;53.068;6.572;2023-01-06T15:48:50;7.50;99.90
54832;DHT22;40730;53.068;6.572;2023-01-06T15:51:18;7.50;99.90
54832;DHT22;40730;53.068;6.572;2023-01-06T15:53:46;7.40;99.90
54832;DHT22;40730;53.068;6.572;2023-01-06T15:56:21;7.40;99.90
54832;DHT22;40730;53.068;6.572;2023-01-06T15:58:49;7.40;99.90
54832;DHT22;40730;53.068;6.572;2023-01-06T16:01:20;7.30;99.90
54832;DHT22;40730;53.068;6.572;2023-01-06T16:03:52;7.40;99.90
54832;DHT22;40730;53.068;6.572;2023-01-06T16:06:29;7.30;99.90
54832;DHT22;40730;53.068;6.572;2023-01-06T16:14:35;7.20;99.90
54832;DHT22;40730;53.068;6.572;2023-01-06T16:19:56;7.10;99.90
54832;DHT22;40730;53.068;6.572;2023-01-06T16:22:34;7.00;99.90
54832;DHT22;40730;53.068;6.572;2023-01-06T16:27:46;6.90;99.90
54832;DHT22;40730;53.068;6.572;2023-01-06T16:32:40;6.90;99.90
54832;DHT22;40730;53.068;6.572;2023-01-06T16:35:13;6.90;99.90
54832;DHT22;40730;53.068;6.572;2023-01-06T16:37:39;6.90;99.90
54832;DHT22;40730;53.068;6.572;2023-01-06T16:40:06;6.90;99.90
54832;DHT22;40730;53.068;6.572;2023-01-06T16:42:35;7.00;99.90
54832;DHT22;40730;53.068;6.572;2023-01-06T16:47:44;7.00;99.90
54832;DHT22;40730;53.068;6.572;2023-01-06T16:52:49;7.00;99.90
54832;DHT22;40730;53.068;6.572;2023-01-06T16:55:17;7.00;99.90
54832;DHT22;40730;53.068;6.572;2023-01-06T16:57:47;7.00;99.90
54832;DHT22;40730;53.068;6.572;2023-01-06T17:00:17;7.00;99.90
54832;DHT22;40730;53.068;6.572;2023-01-06T17:02:43;6.90;99.90
54832;DHT22;40730;53.068;6.572;2023-01-06T17:05:19;6.90;99.90
54832;DHT22;40730;53.068;6.572;2023-01-06T17:07:45;6.90;99.90
54832;DHT22;40730;53.068;6.572;2023-01-06T17:10:17;6.90;99.90
54832;DHT22;40730;53.068;6.572;2023-01-06T17:13:00;6.90;99.90
54832;DHT22;40730;53.068;6.572;2023-01-06T17:15:45;6.90;99.90
54832;DHT22;40730;53.068;6.572;2023-01-06T17:20:44;6.80;99.90
54832;DHT22;40730;53.068;6.572;2023-01-06T17:23:10;6.80;99.90
54832;DHT22;40730;53.068;6.572;2023-01-06T17:25:36;6.80;99.90
54832;DHT22;40730;53.068;6.572;2023-01-06T17:28:18;6.70;99.90
54832;DHT22;40730;53.068;6.572;2023-01-06T17:30:46;6.70;99.90
54832;DHT22;40730;53.068;6.572;2023-01-06T17:33:13;6.60;99.90
54832;DHT22;40730;53.068;6.572;2023-01-06T17:35:42;6.60;99.90
54832;DHT22;40730;53.068;6.572;2023-01-06T17:38:18;6.60;99.90
54832;DHT22;40730;53.068;6.572;2023-01-06T17:40:47;6.60;99.90
54832;DHT22;40730;53.068;6.572;2023-01-06T17:43:29;6.50;99.90
54832;DHT22;40730;53.068;6.572;2023-01-06T17:45:56;6.50;99.90
54832;DHT22;40730;53.068;6.572;2023-01-06T17:48:21;6.50;99.90
54832;DHT22;40730;53.068;6.572;2023-01-06T17:50:51;6.60;99.90
54832;DHT22;40730;53.068;6.572;2023-01-06T17:53:55;6.60;99.90
54832;DHT22;40730;53.068;6.572;2023-01-06T17:56:32;6.50;99.90
54832;DHT22;40730;53.068;6.572;2023-01-06T17:58:58;6.50;99.90
54832;DHT22;40730;53.068;6.572;2023-01-06T18:01:29;6.50;99.90
54832;DHT22;40730;53.068;6.572;2023-01-06T18:03:56;6.50;99.90
54832;DHT22;40730;53.068;6.572;2023-01-06T18:06:24;6.50;99.90
54832;DHT22;40730;53.068;6.572;2023-01-06T18:14:19;6.50;99.90
54832;DHT22;40730;53.068;6.572;2023-01-06T18:16:46;6.50;99.90
54832;DHT22;40730;53.068;6.572;2023-01-06T18:21:42;6.50;99.90
54832;DHT22;40730;53.068;6.572;2023-01-06T18:24:26;6.50;99.90
54832;DHT22;40730;53.068;6.572;2023-01-06T18:26:56;6.60;99.90
54832;DHT22;40730;53.068;6.572;2023-01-06T18:29:36;6.50;99.90
54832;DHT22;40730;53.068;6.572;2023-01-06T18:34:53;6.60;99.90